createdAt,value
2018-03-19T00:01:06.860Z,4.07
2018-03-19T00:03:35.712Z,3.80
2018-03-19T00:06:04.548Z,3.93
2018-03-19T00:08:33.406Z,4.23
2018-03-19T00:11:02.278Z,4.20
2018-03-19T00:13:31.120Z,3.93
2018-03-19T00:16:00.785Z,4.40
2018-03-19T00:18:33.647Z,4.40
2018-03-19T00:21:02.505Z,4.30
2018-03-19T00:23:31.341Z,4.30
2018-03-19T00:26:00.187Z,3.97
2018-03-19T00:28:29.082Z,4.97
2018-03-19T00:30:57.907Z,4.47
2018-03-19T00:33:26.782Z,4.20
2018-03-19T00:35:55.640Z,4.27
2018-03-19T00:38:24.476Z,4.50
2018-03-19T00:40:53.336Z,4.40
2018-03-19T00:43:22.188Z,4.80
2018-03-19T00:45:51.042Z,4.37
2018-03-19T00:48:19.938Z,4.70
2018-03-19T00:50:55.506Z,4.93
2018-03-19T00:53:24.376Z,4.90
2018-03-19T00:55:53.208Z,4.40
2018-03-19T00:58:22.152Z,3.90
2018-03-19T01:00:51.916Z,3.97
2018-03-19T01:03:20.770Z,4.40
2018-03-19T01:05:49.659Z,4.20
2018-03-19T01:08:18.512Z,4.17
2018-03-19T01:10:47.370Z,4.20
2018-03-19T01:13:16.242Z,3.97
2018-03-19T01:15:45.114Z,4.13
2018-03-19T01:18:13.966Z,4.10
2018-03-19T01:20:42.816Z,4.23
2018-03-19T01:23:12.594Z,4.70
2018-03-19T01:25:41.438Z,4.17
2018-03-19T01:28:10.271Z,4.33
2018-03-19T01:30:39.132Z,4.20
2018-03-19T01:33:07.976Z,4.10
2018-03-19T01:35:36.822Z,4.00
2018-03-19T01:38:05.673Z,3.93
2018-03-19T01:40:34.568Z,4.10
2018-03-19T01:43:03.506Z,3.83
2018-03-19T01:45:32.386Z,4.27
2018-03-19T01:48:01.244Z,4.30
2018-03-19T01:50:30.080Z,4.13
2018-03-19T01:52:58.946Z,3.70
2018-03-19T01:55:27.774Z,4.07
2018-03-19T01:57:56.648Z,3.83
2018-03-19T02:00:25.514Z,4.30
2018-03-19T02:02:54.380Z,4.03
2018-03-19T02:05:23.284Z,4.30
2018-03-19T02:07:52.158Z,3.73
2018-03-19T02:10:21.002Z,4.27
2018-03-19T02:12:50.096Z,3.70
2018-03-19T02:15:19.033Z,4.10
2018-03-19T02:17:47.918Z,4.20
2018-03-19T02:20:16.774Z,3.63
2018-03-19T02:22:45.656Z,3.73
2018-03-19T02:25:14.490Z,3.70
2018-03-19T02:27:44.322Z,3.97
2018-03-19T02:30:13.165Z,4.07
2018-03-19T02:32:41.996Z,3.87
2018-03-19T02:35:11.768Z,3.90
2018-03-19T02:37:41.390Z,3.43
2018-03-19T02:40:10.275Z,3.50
2018-03-19T02:42:39.116Z,4.40
2018-03-19T02:45:07.984Z,4.00
2018-03-19T02:47:36.830Z,4.33
2018-03-19T02:50:05.677Z,3.93
2018-03-19T02:52:35.093Z,4.07
2018-03-19T02:55:04.285Z,4.07
2018-03-19T02:57:33.112Z,4.07
2018-03-19T03:00:01.980Z,4.40
2018-03-19T03:02:30.825Z,3.77
2018-03-19T03:04:59.726Z,3.23
2018-03-19T03:07:29.275Z,3.80
2018-03-19T03:09:58.124Z,4.43
2018-03-19T03:12:26.978Z,4.17
2018-03-19T03:14:55.834Z,4.30
2018-03-19T03:17:24.672Z,4.50
2018-03-19T03:19:53.510Z,3.37
2018-03-19T03:22:22.384Z,4.37
2018-03-19T03:24:51.224Z,3.77
2018-03-19T03:27:20.096Z,4.00
2018-03-19T03:29:49.520Z,4.20
2018-03-19T03:32:18.398Z,4.07
2018-03-19T03:34:47.233Z,3.90
2018-03-19T03:37:16.124Z,4.37
2018-03-19T03:39:44.961Z,4.30
2018-03-19T03:42:13.828Z,3.77
2018-03-19T03:44:42.707Z,4.10
2018-03-19T03:47:11.584Z,3.97
2018-03-19T03:49:40.442Z,4.50
2018-03-19T03:52:09.622Z,4.20
2018-03-19T03:54:38.518Z,4.30
2018-03-19T03:57:07.380Z,4.27
2018-03-19T03:59:36.238Z,4.13
2018-03-19T04:02:05.130Z,4.27
2018-03-19T04:04:33.980Z,4.50
2018-03-19T04:07:02.844Z,3.93
2018-03-19T04:09:32.404Z,4.00
2018-03-19T04:12:01.287Z,3.87
2018-03-19T04:14:30.164Z,4.10
2018-03-19T04:16:59.676Z,4.17
2018-03-19T04:19:29.143Z,4.23
2018-03-19T04:21:58.011Z,3.80
2018-03-19T04:24:26.843Z,4.00
2018-03-19T04:26:55.672Z,4.53
2018-03-19T04:29:24.528Z,4.37
2018-03-19T04:31:53.434Z,4.33
2018-03-19T04:34:22.303Z,4.40
2018-03-19T04:36:51.213Z,4.00
2018-03-19T04:39:20.061Z,4.57
2018-03-19T04:41:49.849Z,4.33
2018-03-19T04:44:18.694Z,4.30
2018-03-19T04:46:47.653Z,3.57
2018-03-19T04:49:17.374Z,4.53
2018-03-19T04:51:46.227Z,4.23
2018-03-19T04:54:15.097Z,4.80
2018-03-19T04:56:43.959Z,4.33
2018-03-19T04:59:13.167Z,4.30
2018-03-19T05:01:42.039Z,4.47
2018-03-19T05:04:11.580Z,4.23
2018-03-19T05:06:40.481Z,4.20
2018-03-19T05:09:09.681Z,4.07
2018-03-19T05:11:38.679Z,4.50
2018-03-19T05:14:07.643Z,4.50
2018-03-19T05:16:36.480Z,4.70
2018-03-19T05:19:05.357Z,4.63
2018-03-19T05:21:34.428Z,4.40
2018-03-19T05:24:03.271Z,3.93
2018-03-19T05:26:32.189Z,4.27
2018-03-19T05:29:01.032Z,4.30
2018-03-19T05:31:29.871Z,4.67
2018-03-19T05:33:59.093Z,4.30
2018-03-19T05:36:27.935Z,4.10
2018-03-19T05:38:56.801Z,4.63
2018-03-19T05:41:25.668Z,4.47
2018-03-19T05:43:54.571Z,4.63
2018-03-19T05:46:23.957Z,5.17
2018-03-19T05:48:52.819Z,4.17
2018-03-19T05:51:21.666Z,4.80
2018-03-19T05:53:51.175Z,4.03
2018-03-19T05:56:20.039Z,4.73
2018-03-19T05:58:49.168Z,4.97
2018-03-19T06:01:20.043Z,4.30
2018-03-19T06:03:51.583Z,4.43
2018-03-19T06:06:20.703Z,4.57
2018-03-19T06:08:49.632Z,4.10
2018-03-19T06:11:18.503Z,4.97
2018-03-19T06:13:47.407Z,4.50
2018-03-19T06:16:16.267Z,4.70
2018-03-19T06:18:45.137Z,4.67
2018-03-19T06:21:14.107Z,4.13
2018-03-19T06:23:42.993Z,3.80
2018-03-19T06:26:11.844Z,4.57
2018-03-19T06:28:40.703Z,3.90
2018-03-19T06:31:10.104Z,5.20
2018-03-19T06:33:39.507Z,5.63
2018-03-19T06:36:09.329Z,4.70
2018-03-19T06:38:38.906Z,4.53
2018-03-19T06:41:09.164Z,5.00
2018-03-19T06:43:38.955Z,5.10
2018-03-19T06:46:07.861Z,5.50
2018-03-19T06:48:36.703Z,4.93
2018-03-19T06:51:06.117Z,4.73
2018-03-19T06:53:35.011Z,4.77
2018-03-19T06:56:03.878Z,5.57
2018-03-19T06:58:32.747Z,5.20
2018-03-19T07:01:01.665Z,5.20
2018-03-19T07:03:31.167Z,5.40
2018-03-19T07:06:00.005Z,5.03
2018-03-19T07:08:29.748Z,5.23
2018-03-19T07:10:58.613Z,5.57
2018-03-19T07:13:27.608Z,5.83
2018-03-19T07:15:56.471Z,5.50
2018-03-19T07:18:26.172Z,4.57
2018-03-19T07:20:55.977Z,4.33
2018-03-19T07:23:24.839Z,5.33
2018-03-19T07:25:53.677Z,3.77
2018-03-19T07:28:22.541Z,5.23
2018-03-19T07:30:52.077Z,4.23
2018-03-19T07:33:20.925Z,5.10
2018-03-19T07:35:50.983Z,5.50
2018-03-19T07:38:19.848Z,5.17
2018-03-19T07:40:48.699Z,4.53
2018-03-19T07:43:17.615Z,5.23
2018-03-19T07:45:46.513Z,5.30
2018-03-19T07:48:15.355Z,5.73
2018-03-19T07:50:44.223Z,5.37
2018-03-19T07:53:13.063Z,5.50
2018-03-19T07:55:41.918Z,5.87
2018-03-19T07:58:11.598Z,5.70
2018-03-19T08:00:40.447Z,5.50
2018-03-19T08:03:09.447Z,5.70
2018-03-19T08:05:38.376Z,5.80
2018-03-19T08:08:07.557Z,4.70
2018-03-19T08:10:36.469Z,4.10
2018-03-19T08:13:05.333Z,4.83
2018-03-19T08:15:34.175Z,6.10
2018-03-19T08:18:03.024Z,5.10
2018-03-19T08:20:31.903Z,5.40
2018-03-19T08:23:01.669Z,5.63
2018-03-19T08:25:30.537Z,5.67
2018-03-19T08:27:59.406Z,6.20
2018-03-19T08:30:28.277Z,6.10
2018-03-19T08:32:57.155Z,5.87
2018-03-19T08:35:26.055Z,5.90
2018-03-19T08:37:54.899Z,5.90
2018-03-19T08:40:23.735Z,5.70
2018-03-19T08:42:52.593Z,5.70
2018-03-19T08:45:21.453Z,6.23
2018-03-19T08:47:50.375Z,6.97
2018-03-19T08:50:19.993Z,5.77
2018-03-19T08:52:48.853Z,5.80
2018-03-19T08:55:17.683Z,5.43
2018-03-19T08:57:46.558Z,6.20
2018-03-19T09:00:15.395Z,5.17
2018-03-19T09:02:44.237Z,5.87
2018-03-19T09:05:13.124Z,5.80
2018-03-19T09:07:42.848Z,5.90
2018-03-19T09:10:11.699Z,5.57
2018-03-19T09:12:40.669Z,5.17
2018-03-19T09:15:09.979Z,6.10
2018-03-19T09:17:39.687Z,5.83
2018-03-19T09:20:08.551Z,6.00
2018-03-19T09:22:38.583Z,5.37
2018-03-19T09:25:07.429Z,6.07
2018-03-19T09:27:36.339Z,6.40
2018-03-19T09:30:05.201Z,5.40
2018-03-19T09:32:34.394Z,6.20
2018-03-19T09:35:03.391Z,5.83
2018-03-19T09:37:32.235Z,6.03
2018-03-19T09:40:01.113Z,6.00
2018-03-19T09:42:29.975Z,7.10
2018-03-19T09:44:58.830Z,6.17
2018-03-19T09:47:27.675Z,6.20
2018-03-19T09:49:56.561Z,6.33
2018-03-19T09:52:25.442Z,6.10
2018-03-19T09:54:54.303Z,6.53
2018-03-19T09:57:23.208Z,6.30
2018-03-19T09:59:52.099Z,6.23
2018-03-19T10:02:20.951Z,5.73
2018-03-19T10:04:50.009Z,5.77
2018-03-19T10:07:18.885Z,7.03
2018-03-19T10:09:47.735Z,6.43
2018-03-19T10:12:16.605Z,6.43
2018-03-19T10:14:45.494Z,6.67
2018-03-19T10:17:14.397Z,6.10
2018-03-19T10:19:43.269Z,5.90
2018-03-19T10:22:12.741Z,6.47
2018-03-19T10:24:41.592Z,6.50
2018-03-19T10:27:10.689Z,6.10
2018-03-19T10:29:39.544Z,6.37
2018-03-19T10:32:08.925Z,6.40
2018-03-19T10:34:37.825Z,6.53
2018-03-19T10:37:06.702Z,4.90
2018-03-19T10:39:36.327Z,6.83
2018-03-19T10:42:05.206Z,6.13
2018-03-19T10:44:34.110Z,6.90
2018-03-19T10:47:02.967Z,6.50
2018-03-19T10:49:31.849Z,6.60
2018-03-19T10:52:00.692Z,6.70
2018-03-19T10:54:30.300Z,8.80
2018-03-19T10:56:59.194Z,6.50
2018-03-19T10:59:28.382Z,5.73
2018-03-19T11:02:02.980Z,5.97
2018-03-19T11:04:33.054Z,6.27
2018-03-19T11:07:07.552Z,6.37
2018-03-19T11:09:37.244Z,7.17
2018-03-19T11:12:06.180Z,6.20
2018-03-19T11:14:35.004Z,6.83
2018-03-19T11:17:03.901Z,7.03
2018-03-19T11:19:32.800Z,6.73
2018-03-19T11:22:01.672Z,5.53
2018-03-19T11:24:31.095Z,6.57
2018-03-19T11:26:59.960Z,6.93
2018-03-19T11:29:29.793Z,5.73
2018-03-19T11:31:58.642Z,6.70
2018-03-19T11:34:27.505Z,6.43
2018-03-19T11:36:56.409Z,5.37
2018-03-19T11:39:25.272Z,7.40
2018-03-19T11:41:54.172Z,6.00
2018-03-19T11:44:23.035Z,5.33
2018-03-19T11:46:51.887Z,6.50
2018-03-19T11:49:20.724Z,6.17
2018-03-19T11:51:49.592Z,6.60
2018-03-19T11:54:18.442Z,5.50
2018-03-19T11:56:47.316Z,6.63
2018-03-19T11:59:16.198Z,6.83
2018-03-19T12:01:45.066Z,6.60
2018-03-19T12:04:16.240Z,6.43
2018-03-19T12:06:45.852Z,6.40
2018-03-19T12:09:17.488Z,7.17
2018-03-19T12:11:46.592Z,6.90
2018-03-19T12:14:15.443Z,7.07
2018-03-19T12:16:44.712Z,7.63
2018-03-19T12:19:21.040Z,7.33
2018-03-19T12:21:51.516Z,7.03
2018-03-19T12:24:20.440Z,7.03
2018-03-19T12:26:59.924Z,8.27
2018-03-19T12:29:29.812Z,7.60
2018-03-19T12:32:06.594Z,6.83
2018-03-19T12:34:35.572Z,7.67
2018-03-19T12:37:06.258Z,8.10
2018-03-19T12:39:36.078Z,8.70
2018-03-19T12:42:07.462Z,7.40
2018-03-19T12:44:36.587Z,7.60
2018-03-19T12:47:05.919Z,8.60
2018-03-19T12:49:34.858Z,8.30
2018-03-19T12:52:03.791Z,7.77
2018-03-19T12:54:32.660Z,8.07
2018-03-19T12:57:01.546Z,8.13
2018-03-19T12:59:31.108Z,7.27
2018-03-19T13:02:00.942Z,7.17
2018-03-19T13:04:29.784Z,7.50
2018-03-19T13:06:58.685Z,6.50
2018-03-19T13:09:28.059Z,6.97
2018-03-19T13:12:00.148Z,7.23
2018-03-19T13:14:29.594Z,6.63
2018-03-19T13:16:58.438Z,6.20
2018-03-19T13:19:28.030Z,6.27
2018-03-19T13:21:56.876Z,6.87
2018-03-19T13:24:26.284Z,6.37
2018-03-19T13:26:55.156Z,6.97
2018-03-19T13:29:25.061Z,6.60
2018-03-19T13:31:54.130Z,6.77
2018-03-19T13:34:24.756Z,6.20
2018-03-19T13:36:54.280Z,6.50
2018-03-19T13:39:24.563Z,7.00
2018-03-19T13:41:55.174Z,6.37
2018-03-19T13:44:24.954Z,6.60
2018-03-19T13:46:55.270Z,5.90
2018-03-19T13:49:25.052Z,6.13
2018-03-19T13:51:54.178Z,6.20
2018-03-19T13:54:23.788Z,6.30
2018-03-19T13:56:54.568Z,6.30
2018-03-19T13:59:25.944Z,5.93
2018-03-19T14:01:54.810Z,5.80
2018-03-19T14:04:24.592Z,5.87
2018-03-19T14:06:54.806Z,6.13
2018-03-19T14:09:24.889Z,6.60
2018-03-19T14:11:54.012Z,5.87
2018-03-19T14:14:24.212Z,5.60
2018-03-19T14:16:54.228Z,5.93
2018-03-19T14:19:24.448Z,5.30
2018-03-19T14:21:54.077Z,5.70
2018-03-19T14:24:24.300Z,5.43
2018-03-19T14:26:54.699Z,5.40
2018-03-19T14:29:24.564Z,5.90
2018-03-19T14:31:54.380Z,5.37
2018-03-19T14:34:24.438Z,4.77
2018-03-19T14:36:54.056Z,5.50
2018-03-19T14:39:22.904Z,5.37
2018-03-19T14:41:51.792Z,5.43
2018-03-19T14:44:21.168Z,4.97
2018-03-19T14:46:50.014Z,5.67
2018-03-19T14:49:18.872Z,5.07
2018-03-19T14:51:47.718Z,5.50
2018-03-19T14:54:16.925Z,4.90
2018-03-19T14:56:46.081Z,5.10
2018-03-19T14:59:14.945Z,4.73
2018-03-19T15:01:44.048Z,4.80
2018-03-19T15:04:13.564Z,5.10
2018-03-19T15:06:42.459Z,5.23
2018-03-19T15:09:12.242Z,5.10
2018-03-19T15:11:41.108Z,5.07
2018-03-19T15:14:10.564Z,4.77
2018-03-19T15:16:41.371Z,4.60
2018-03-19T15:19:10.911Z,4.80
2018-03-19T15:21:39.844Z,4.97
2018-03-19T15:24:09.314Z,5.10
2018-03-19T15:26:38.152Z,4.70
2018-03-19T15:29:07.561Z,4.90
2018-03-19T15:31:36.499Z,4.27
2018-03-19T15:34:05.332Z,4.67
2018-03-19T15:36:34.184Z,4.10
2018-03-19T15:39:03.351Z,4.87
2018-03-19T15:41:32.212Z,4.67
2018-03-19T15:44:01.101Z,4.40
2018-03-19T15:46:30.012Z,4.47
2018-03-19T15:48:58.856Z,4.63
2018-03-19T15:51:27.704Z,4.70
2018-03-19T15:53:57.036Z,5.10
2018-03-19T15:56:25.898Z,4.27
2018-03-19T15:58:55.627Z,5.40
2018-03-19T16:01:25.270Z,5.00
2018-03-19T16:03:54.108Z,4.73
2018-03-19T16:06:22.958Z,5.00
2018-03-19T16:08:51.812Z,4.00
2018-03-19T16:11:20.650Z,4.17
2018-03-19T16:13:49.596Z,4.90
2018-03-19T16:16:18.480Z,4.20
2018-03-19T16:18:47.334Z,5.10
2018-03-19T16:21:16.169Z,5.07
2018-03-19T16:23:45.031Z,4.30
2018-03-19T16:26:13.870Z,4.33
2018-03-19T16:28:42.723Z,4.50
2018-03-19T16:31:11.583Z,4.90
2018-03-19T16:33:41.190Z,3.93
2018-03-19T16:36:10.024Z,4.30
2018-03-19T16:38:39.062Z,5.97
2018-03-19T16:41:07.905Z,4.60
2018-03-19T16:43:36.784Z,4.10
2018-03-19T16:46:06.423Z,4.70
2018-03-19T16:48:35.260Z,4.27
2018-03-19T16:51:04.360Z,4.37
2018-03-19T16:53:34.056Z,4.40
2018-03-19T16:56:02.892Z,4.20
2018-03-19T16:58:31.831Z,4.53
2018-03-19T17:01:00.676Z,4.10
2018-03-19T17:03:29.520Z,4.10
2018-03-19T17:05:58.897Z,4.20
2018-03-19T17:08:27.791Z,4.33
2018-03-19T17:10:56.632Z,4.40
2018-03-19T17:13:25.480Z,4.43
2018-03-19T17:15:54.360Z,4.70
2018-03-19T17:18:23.226Z,4.90
2018-03-19T17:20:53.225Z,4.80
2018-03-19T17:23:22.092Z,6.10
2018-03-19T17:25:50.927Z,4.80
2018-03-19T17:28:21.116Z,4.67
2018-03-19T17:30:49.965Z,4.03
2018-03-19T17:33:18.798Z,5.03
2018-03-19T17:35:47.697Z,4.33
2018-03-19T17:38:16.604Z,4.90
2018-03-19T17:40:45.454Z,4.40
2018-03-19T17:43:14.298Z,4.83
2018-03-19T17:45:43.534Z,4.23
2018-03-19T17:48:12.389Z,4.33
2018-03-19T17:50:41.309Z,4.10
2018-03-19T17:53:10.401Z,5.53
2018-03-19T17:55:39.359Z,4.17
2018-03-19T17:58:08.253Z,4.97
2018-03-19T18:00:37.125Z,5.00
2018-03-19T18:03:05.963Z,4.57
2018-03-19T18:05:34.826Z,5.47
2018-03-19T18:08:03.695Z,5.10
2018-03-19T18:10:32.539Z,4.53
2018-03-19T18:13:01.419Z,4.10
2018-03-19T18:15:30.276Z,4.40
2018-03-19T18:17:59.462Z,4.50
2018-03-19T18:20:28.331Z,4.93
2018-03-19T18:22:57.185Z,4.73
2018-03-19T18:25:26.059Z,4.60
2018-03-19T18:27:54.906Z,4.00
2018-03-19T18:30:23.745Z,5.37
2018-03-19T18:32:52.617Z,4.43
2018-03-19T18:35:21.537Z,4.03
2018-03-19T18:37:52.419Z,3.97
2018-03-19T18:40:21.285Z,3.90
2018-03-19T18:42:50.155Z,3.90
2018-03-19T18:45:19.070Z,3.70
2018-03-19T18:47:47.930Z,3.70
2018-03-19T18:50:16.845Z,3.33
2018-03-19T18:52:45.693Z,3.70
2018-03-19T18:55:14.567Z,4.00
2018-03-19T18:57:43.405Z,4.00
2018-03-19T19:00:12.253Z,3.73
2018-03-19T19:02:42.140Z,3.97
2018-03-19T19:05:10.949Z,4.30
2018-03-19T19:07:39.793Z,4.43
2018-03-19T19:10:09.328Z,4.30
2018-03-19T19:12:38.204Z,4.43
2018-03-19T19:15:07.062Z,4.63
2018-03-19T19:17:36.007Z,3.83
2018-03-19T19:20:04.920Z,4.17
2018-03-19T19:22:34.609Z,3.80
2018-03-19T19:25:03.491Z,3.90
2018-03-19T19:27:32.393Z,3.90
2018-03-19T19:30:02.006Z,3.80
2018-03-19T19:32:32.702Z,4.00
2018-03-19T19:35:01.550Z,6.23
2018-03-19T19:37:30.409Z,3.80
2018-03-19T19:39:59.804Z,3.57
2018-03-19T19:42:29.246Z,3.23
2018-03-19T19:44:58.119Z,3.87
2018-03-19T19:47:27.743Z,4.50
2018-03-19T19:49:56.577Z,5.10
2018-03-19T19:52:25.487Z,3.93
2018-03-19T19:54:54.430Z,3.87
2018-03-19T19:57:25.335Z,5.23
2018-03-19T19:59:54.243Z,4.17
2018-03-19T20:02:23.109Z,3.97
2018-03-19T20:04:53.629Z,4.67
2018-03-19T20:07:22.532Z,4.80
2018-03-19T20:09:51.548Z,4.23
2018-03-19T20:12:20.379Z,4.23
2018-03-19T20:14:49.243Z,4.20
2018-03-19T20:17:18.157Z,5.47
2018-03-19T20:19:47.025Z,4.37
2018-03-19T20:22:15.921Z,5.07
2018-03-19T20:24:44.779Z,4.60
2018-03-19T20:27:13.628Z,4.57
2018-03-19T20:29:43.415Z,4.33
2018-03-19T20:32:12.264Z,4.90
2018-03-19T20:34:41.593Z,4.93
2018-03-19T20:37:11.106Z,4.40
2018-03-19T20:39:39.961Z,4.40
2018-03-19T20:42:09.740Z,4.77
2018-03-19T20:44:38.616Z,4.90
2018-03-19T20:47:07.506Z,4.87
2018-03-19T20:49:36.357Z,4.50
2018-03-19T20:52:09.157Z,4.33
2018-03-19T20:54:38.029Z,4.20
2018-03-19T20:57:06.908Z,4.00
2018-03-19T20:59:36.423Z,4.33
2018-03-19T21:02:05.269Z,4.93
2018-03-19T21:04:34.173Z,4.70
2018-03-19T21:07:03.032Z,4.83
2018-03-19T21:09:31.876Z,5.07
2018-03-19T21:12:00.738Z,4.37
2018-03-19T21:14:29.680Z,5.47
2018-03-19T21:16:58.848Z,4.83
2018-03-19T21:19:27.736Z,4.77
2018-03-19T21:21:56.619Z,4.47
2018-03-19T21:24:25.568Z,5.00
2018-03-19T21:26:54.746Z,4.80
2018-03-19T21:29:23.626Z,4.63
2018-03-19T21:31:52.529Z,4.93
2018-03-19T21:34:21.407Z,4.73
2018-03-19T21:36:50.284Z,4.70
2018-03-19T21:39:19.125Z,5.50
2018-03-19T21:41:48.032Z,5.90
2018-03-19T21:44:16.869Z,6.20
2018-03-19T21:46:45.710Z,5.97
2018-03-19T21:49:14.567Z,5.40
2018-03-19T21:51:44.058Z,6.53
2018-03-19T21:54:12.892Z,5.47
2018-03-19T21:56:42.042Z,5.70
2018-03-19T21:59:11.357Z,4.80
2018-03-19T22:01:42.388Z,5.00
2018-03-19T22:04:12.631Z,5.33
2018-03-19T22:06:45.252Z,4.67
2018-03-19T22:09:14.466Z,4.87
2018-03-19T22:11:45.934Z,4.70
2018-03-19T22:14:26.367Z,5.17
2018-03-19T22:16:55.214Z,4.57
2018-03-19T22:22:04.328Z,4.97
2018-03-19T22:24:33.208Z,4.77
2018-03-19T22:27:13.782Z,5.07
2018-03-19T22:32:31.519Z,5.17
2018-03-19T22:35:08.265Z,5.20
2018-03-19T22:37:37.830Z,5.10
2018-03-19T22:40:11.272Z,5.07
2018-03-19T22:47:55.840Z,5.90
2018-03-19T22:50:25.048Z,5.73
2018-03-19T22:52:54.316Z,5.23
2018-03-19T22:55:23.988Z,6.03
2018-03-19T22:57:58.828Z,6.47
2018-03-19T23:00:27.770Z,6.07
2018-03-19T23:02:56.607Z,5.30
2018-03-19T23:05:25.438Z,6.10
2018-03-19T23:07:54.304Z,5.83
2018-03-19T23:10:23.145Z,7.10
2018-03-19T23:12:53.801Z,6.37
2018-03-19T23:15:22.748Z,5.30
2018-03-19T23:17:51.586Z,5.23
2018-03-19T23:20:20.485Z,5.70
2018-03-19T23:22:49.357Z,5.37
2018-03-19T23:25:18.528Z,5.07
2018-03-19T23:27:47.440Z,5.40
2018-03-19T23:30:16.300Z,5.33
2018-03-19T23:32:45.568Z,5.63
2018-03-19T23:35:14.540Z,5.10
2018-03-19T23:37:43.784Z,5.47
2018-03-19T23:40:14.840Z,5.40
2018-03-19T23:42:44.604Z,5.00
2018-03-19T23:45:13.571Z,5.83
2018-03-19T23:47:42.438Z,5.33
2018-03-19T23:50:11.624Z,5.43
2018-03-19T23:52:40.516Z,5.47
2018-03-19T23:55:09.628Z,5.90
2018-03-19T23:57:38.521Z,5.83
